createdAt,value
2023-03-01T00:00:39.588Z,0.00
2023-03-01T00:01:39.578Z,0.00
2023-03-01T00:02:39.595Z,0.00
2023-03-01T00:03:39.587Z,0.00
2023-03-01T00:04:39.566Z,0.00
2023-03-01T00:05:39.543Z,0.00
2023-03-01T00:06:39.531Z,0.00
2023-03-01T00:07:39.513Z,0.00
2023-03-01T00:08:39.514Z,0.00
2023-03-01T00:09:39.517Z,0.00
2023-03-01T00:10:39.491Z,0.00
2023-03-01T00:11:39.489Z,0.00
2023-03-01T00:12:39.504Z,0.00
2023-03-01T00:13:39.456Z,0.00
2023-03-01T00:14:39.475Z,0.00
2023-03-01T00:15:39.439Z,0.00
2023-03-01T00:16:39.489Z,0.00
2023-03-01T00:17:39.456Z,0.00
2023-03-01T00:18:39.413Z,0.00
2023-03-01T00:19:39.399Z,0.00
2023-03-01T00:20:39.399Z,0.00
2023-03-01T00:21:39.405Z,0.00
2023-03-01T00:22:39.379Z,0.00
2023-03-01T00:23:39.385Z,0.00
2023-03-01T00:24:39.359Z,0.00
2023-03-01T00:25:39.339Z,0.00
2023-03-01T00:26:39.360Z,0.00
2023-03-01T00:27:39.322Z,0.00
2023-03-01T00:28:39.320Z,0.00
2023-03-01T00:29:39.321Z,0.00
2023-03-01T00:30:39.339Z,0.00
2023-03-01T00:31:39.312Z,0.00
2023-03-01T00:32:39.278Z,0.00
2023-03-01T00:33:39.281Z,0.00
2023-03-01T00:34:39.267Z,0.00
2023-03-01T00:35:39.287Z,0.00
2023-03-01T00:36:39.295Z,0.00
2023-03-01T00:37:39.240Z,0.00
2023-03-01T00:38:39.240Z,0.00
2023-03-01T00:39:39.219Z,0.00
2023-03-01T00:40:39.211Z,0.00
2023-03-01T00:41:39.211Z,0.00
2023-03-01T00:42:39.212Z,0.00
2023-03-01T00:43:39.182Z,0.00
2023-03-01T00:44:39.161Z,0.00
2023-03-01T00:45:39.169Z,0.00
2023-03-01T00:46:39.312Z,0.00
2023-03-01T00:47:39.160Z,0.00
2023-03-01T00:48:39.161Z,0.00
2023-03-01T00:49:39.136Z,0.00
2023-03-01T00:50:39.123Z,0.00
2023-03-01T00:51:39.094Z,0.00
2023-03-01T00:52:39.092Z,0.00
2023-03-01T00:53:39.077Z,0.00
2023-03-01T00:54:39.090Z,0.00
2023-03-01T00:55:39.062Z,0.00
2023-03-01T00:56:39.046Z,0.00
2023-03-01T00:57:39.025Z,0.00
2023-03-01T00:58:39.057Z,0.00
2023-03-01T00:59:39.035Z,0.00
2023-03-01T01:00:39.042Z,0.00
2023-03-01T01:01:39.092Z,0.00
2023-03-01T01:02:39.031Z,0.00
2023-03-01T01:03:38.987Z,0.00
2023-03-01T01:04:38.986Z,0.00
2023-03-01T01:05:38.970Z,0.00
2023-03-01T01:06:38.958Z,0.00
2023-03-01T01:07:38.934Z,0.00
2023-03-01T01:08:38.945Z,0.00
2023-03-01T01:09:38.947Z,0.00
2023-03-01T01:11:10.808Z,0.00
2023-03-01T01:11:38.898Z,0.00
2023-03-01T01:12:38.908Z,0.00
2023-03-01T01:13:38.881Z,0.00
2023-03-01T01:14:38.867Z,0.00
2023-03-01T01:15:38.891Z,0.00
2023-03-01T01:16:38.867Z,0.00
2023-03-01T01:17:38.843Z,0.00
2023-03-01T01:18:38.838Z,0.00
2023-03-01T01:19:38.825Z,0.00
2023-03-01T01:20:38.836Z,0.00
2023-03-01T01:21:38.813Z,0.00
2023-03-01T01:22:38.794Z,0.00
2023-03-01T01:23:38.824Z,0.00
2023-03-01T01:24:38.777Z,0.00
2023-03-01T01:25:38.765Z,0.00
2023-03-01T01:26:38.764Z,0.00
2023-03-01T01:27:38.751Z,0.00
2023-03-01T01:28:38.744Z,0.00
2023-03-01T01:29:38.731Z,0.00
2023-03-01T01:30:38.712Z,0.00
2023-03-01T01:31:38.728Z,0.00
2023-03-01T01:32:38.691Z,0.00
2023-03-01T01:33:38.698Z,0.00
2023-03-01T01:34:38.679Z,0.00
2023-03-01T01:35:38.685Z,0.00
2023-03-01T01:36:38.683Z,0.00
2023-03-01T01:37:38.654Z,0.00
2023-03-01T01:38:38.646Z,0.00
2023-03-01T01:39:38.644Z,0.00
2023-03-01T01:40:38.623Z,0.00
2023-03-01T01:41:38.616Z,0.00
2023-03-01T01:42:38.600Z,0.00
2023-03-01T01:43:38.592Z,0.00
2023-03-01T01:44:38.576Z,0.00
2023-03-01T01:45:38.578Z,0.00
2023-03-01T01:46:38.650Z,0.00
2023-03-01T01:47:38.555Z,0.00
2023-03-01T01:48:38.538Z,0.00
2023-03-01T01:49:38.531Z,0.00
2023-03-01T01:50:38.533Z,0.00
2023-03-01T01:51:38.520Z,0.00
2023-03-01T01:52:38.529Z,0.00
2023-03-01T01:53:38.497Z,0.00
2023-03-01T01:54:38.486Z,0.00
2023-03-01T01:55:38.482Z,0.00
2023-03-01T01:56:38.485Z,0.00
2023-03-01T01:57:38.460Z,0.00
2023-03-01T01:58:38.450Z,0.00
2023-03-01T01:59:38.436Z,0.00
2023-03-01T02:00:38.455Z,0.00
2023-03-01T02:01:38.418Z,0.00
2023-03-01T02:02:38.613Z,0.00
2023-03-01T02:03:38.676Z,0.00
2023-03-01T02:04:38.396Z,0.00
2023-03-01T02:05:38.393Z,0.00
2023-03-01T02:06:38.367Z,0.00
2023-03-01T02:07:39.371Z,0.00
2023-03-01T02:08:38.348Z,0.00
2023-03-01T02:09:38.345Z,0.00
2023-03-01T02:10:38.356Z,0.00
2023-03-01T02:11:38.322Z,0.00
2023-03-01T02:12:38.316Z,0.00
2023-03-01T02:13:38.315Z,0.00
2023-03-01T02:14:38.296Z,0.00
2023-03-01T02:15:38.309Z,0.00
2023-03-01T02:16:38.445Z,0.00
2023-03-01T02:17:38.261Z,0.00
2023-03-01T02:18:38.255Z,0.00
2023-03-01T02:19:38.236Z,0.00
2023-03-01T02:20:38.252Z,0.00
2023-03-01T02:21:38.227Z,0.00
2023-03-01T02:22:38.265Z,0.00
2023-03-01T02:23:38.204Z,0.00
2023-03-01T02:24:38.194Z,0.00
2023-03-01T02:25:38.214Z,0.00
2023-03-01T02:26:38.170Z,0.00
2023-03-01T02:27:38.214Z,0.00
2023-03-01T02:28:38.166Z,0.00
2023-03-01T02:29:38.156Z,0.00
2023-03-01T02:30:38.148Z,0.00
2023-03-01T02:31:38.211Z,0.00
2023-03-01T02:32:38.143Z,0.00
2023-03-01T02:33:38.133Z,0.00
2023-03-01T02:34:38.100Z,0.00
2023-03-01T02:35:38.132Z,0.00
2023-03-01T02:36:38.093Z,0.00
2023-03-01T02:37:38.074Z,0.00
2023-03-01T02:38:38.083Z,0.00
2023-03-01T02:39:38.050Z,0.00
2023-03-01T02:40:38.043Z,0.00
2023-03-01T02:41:38.037Z,0.00
2023-03-01T02:42:38.025Z,0.00
2023-03-01T02:43:38.039Z,0.00
2023-03-01T02:44:38.021Z,0.00
2023-03-01T02:45:38.023Z,0.00
2023-03-01T02:46:38.012Z,0.00
2023-03-01T02:47:37.977Z,0.00
2023-03-01T02:48:37.966Z,0.00
2023-03-01T02:49:37.957Z,0.00
2023-03-01T02:50:37.957Z,0.00
2023-03-01T02:51:38.938Z,0.00
2023-03-01T02:52:37.949Z,0.00
2023-03-01T02:53:37.929Z,0.00
2023-03-01T02:54:37.924Z,0.00
2023-03-01T02:55:37.920Z,0.00
2023-03-01T02:56:37.901Z,0.00
2023-03-01T02:57:37.902Z,0.00
2023-03-01T02:58:37.905Z,0.00
2023-03-01T02:59:37.857Z,0.00
2023-03-01T03:00:37.899Z,0.00
2023-03-01T03:01:37.878Z,0.00
2023-03-01T03:02:37.855Z,0.00
2023-03-01T03:03:37.860Z,0.00
2023-03-01T03:04:37.849Z,0.00
2023-03-01T03:05:37.792Z,0.00
2023-03-01T03:06:37.804Z,0.00
2023-03-01T03:07:37.771Z,0.00
2023-03-01T03:08:37.819Z,0.00
2023-03-01T03:09:37.783Z,0.00
2023-03-01T03:10:37.754Z,0.00
2023-03-01T03:11:37.798Z,0.00
2023-03-01T03:12:37.737Z,0.00
2023-03-01T03:13:37.748Z,0.00
2023-03-01T03:14:37.711Z,0.00
2023-03-01T03:15:37.733Z,0.00
2023-03-01T03:16:37.715Z,0.00
2023-03-01T03:17:37.692Z,0.00
2023-03-01T03:18:37.679Z,0.00
2023-03-01T03:19:37.665Z,0.00
2023-03-01T03:20:37.690Z,0.00
2023-03-01T03:21:37.650Z,0.00
2023-03-01T03:22:37.654Z,0.00
2023-03-01T03:23:37.657Z,0.00
2023-03-01T03:24:37.617Z,0.00
2023-03-01T03:25:37.613Z,0.00
2023-03-01T03:26:37.640Z,0.00
2023-03-01T03:27:37.603Z,0.00
2023-03-01T03:28:37.587Z,0.00
2023-03-01T03:29:37.577Z,0.00
2023-03-01T03:30:37.565Z,0.00
2023-03-01T03:31:37.649Z,0.00
2023-03-01T03:32:37.566Z,0.00
2023-03-01T03:33:37.533Z,0.00
2023-03-01T03:34:37.533Z,0.00
2023-03-01T03:35:37.558Z,0.00
2023-03-01T03:36:37.514Z,0.00
2023-03-01T03:37:37.524Z,0.00
2023-03-01T03:38:37.497Z,0.00
2023-03-01T03:39:37.480Z,0.00
2023-03-01T03:40:37.513Z,0.00
2023-03-01T03:41:37.477Z,0.00
2023-03-01T03:42:37.457Z,0.00
2023-03-01T03:43:37.488Z,0.00
2023-03-01T03:44:37.501Z,0.00
2023-03-01T03:45:37.471Z,0.00
2023-03-01T03:46:37.431Z,0.00
2023-03-01T03:47:37.409Z,0.00
2023-03-01T03:48:37.425Z,0.00
2023-03-01T03:49:37.399Z,0.00
2023-03-01T03:50:37.387Z,0.00
2023-03-01T03:51:37.410Z,0.00
2023-03-01T03:52:37.366Z,0.00
2023-03-01T03:53:37.349Z,0.00
2023-03-01T03:54:37.342Z,0.00
2023-03-01T03:55:37.338Z,0.00
2023-03-01T03:56:38.766Z,0.00
2023-03-01T03:57:37.314Z,0.00
2023-03-01T03:58:37.325Z,0.00
2023-03-01T03:59:37.287Z,0.00
2023-03-01T04:00:37.302Z,0.00
2023-03-01T04:01:37.370Z,0.00
2023-03-01T04:02:37.342Z,0.00
2023-03-01T04:03:37.265Z,0.00
2023-03-01T04:04:37.275Z,0.00
2023-03-01T04:05:37.264Z,0.00
2023-03-01T04:06:37.249Z,0.00
2023-03-01T04:07:37.264Z,0.00
2023-03-01T04:08:37.269Z,0.00
2023-03-01T04:09:37.206Z,0.00
2023-03-01T04:10:37.219Z,0.00
2023-03-01T04:11:37.184Z,0.00
2023-03-01T04:12:37.196Z,0.00
2023-03-01T04:13:37.181Z,0.00
2023-03-01T04:14:37.171Z,0.00
2023-03-01T04:15:37.192Z,0.00
2023-03-01T04:16:37.202Z,0.00
2023-03-01T04:17:37.128Z,0.00
2023-03-01T04:18:37.119Z,0.00
2023-03-01T04:19:37.106Z,0.00
2023-03-01T04:20:37.114Z,0.00
2023-03-01T04:21:37.105Z,0.00
2023-03-01T04:22:37.077Z,0.00
2023-03-01T04:23:37.069Z,0.00
2023-03-01T04:24:37.060Z,0.00
2023-03-01T04:25:37.079Z,0.00
2023-03-01T04:26:37.054Z,0.00
2023-03-01T04:27:37.034Z,0.00
2023-03-01T04:28:37.022Z,0.00
2023-03-01T04:29:37.012Z,0.00
2023-03-01T04:30:37.008Z,0.00
2023-03-01T04:31:37.029Z,0.00
2023-03-01T04:32:37.106Z,0.00
2023-03-01T04:33:36.971Z,0.00
2023-03-01T04:34:36.973Z,0.00
2023-03-01T04:35:37.117Z,0.00
2023-03-01T04:36:37.376Z,0.00
2023-03-01T04:37:36.949Z,0.00
2023-03-01T04:38:36.925Z,0.00
2023-03-01T04:39:36.919Z,0.00
2023-03-01T04:40:36.925Z,0.00
2023-03-01T04:41:36.904Z,0.00
2023-03-01T04:42:36.883Z,0.00
2023-03-01T04:43:36.896Z,0.00
2023-03-01T04:44:36.869Z,0.00
2023-03-01T04:45:36.977Z,0.00
2023-03-01T04:46:36.857Z,0.00
2023-03-01T04:47:36.860Z,0.00
2023-03-01T04:48:36.848Z,0.00
2023-03-01T04:49:36.827Z,0.00
2023-03-01T04:50:36.852Z,0.00
2023-03-01T04:51:36.839Z,0.00
2023-03-01T04:52:36.804Z,0.00
2023-03-01T04:53:36.811Z,0.00
2023-03-01T04:54:36.765Z,0.00
2023-03-01T04:55:36.764Z,0.00
2023-03-01T04:56:36.763Z,0.00
2023-03-01T04:57:36.757Z,0.00
2023-03-01T04:58:36.735Z,0.00
2023-03-01T04:59:36.724Z,0.00
2023-03-01T05:00:36.726Z,0.00
2023-03-01T05:01:36.733Z,0.00
2023-03-01T05:02:36.744Z,0.00
2023-03-01T05:03:36.693Z,0.00
2023-03-01T05:04:36.719Z,0.00
2023-03-01T05:05:36.699Z,0.00
2023-03-01T05:06:36.656Z,0.00
2023-03-01T05:07:36.643Z,0.00
2023-03-01T05:08:36.638Z,0.00
2023-03-01T05:09:36.627Z,0.00
2023-03-01T05:10:36.643Z,0.00
2023-03-01T05:11:36.635Z,0.00
2023-03-01T05:12:36.601Z,0.00
2023-03-01T05:13:36.589Z,0.00
2023-03-01T05:14:36.597Z,0.00
2023-03-01T05:15:36.630Z,0.00
2023-03-01T05:16:36.981Z,0.00
2023-03-01T05:17:36.561Z,0.00
2023-03-01T05:18:36.570Z,0.00
2023-03-01T05:19:36.545Z,0.00
2023-03-01T05:20:36.559Z,0.00
2023-03-01T05:21:36.519Z,0.00
2023-03-01T05:22:36.513Z,0.00
2023-03-01T05:23:36.516Z,0.00
2023-03-01T05:24:36.501Z,0.00
2023-03-01T05:25:36.501Z,0.00
2023-03-01T05:26:36.569Z,0.00
2023-03-01T05:27:36.478Z,0.00
2023-03-01T05:28:36.481Z,0.00
2023-03-01T05:29:36.478Z,0.00
2023-03-01T05:30:36.435Z,0.00
2023-03-01T05:31:36.459Z,0.00
2023-03-01T05:32:36.434Z,0.00
2023-03-01T05:33:38.571Z,0.00
2023-03-01T05:34:36.409Z,0.00
2023-03-01T05:35:36.477Z,0.00
2023-03-01T05:36:36.404Z,0.00
2023-03-01T05:37:36.380Z,0.00
2023-03-01T05:38:36.371Z,0.00
2023-03-01T05:39:36.369Z,0.00
2023-03-01T05:40:36.350Z,0.00
2023-03-01T05:41:36.352Z,0.00
2023-03-01T05:42:36.338Z,0.00
2023-03-01T05:43:36.341Z,0.00
2023-03-01T05:44:36.309Z,0.00
2023-03-01T05:45:36.339Z,0.00
2023-03-01T05:46:36.290Z,0.00
2023-03-01T05:47:36.275Z,0.00
2023-03-01T05:48:36.319Z,0.00
2023-03-01T05:49:38.292Z,5.62
2023-03-01T05:50:36.257Z,5.62
2023-03-01T05:51:36.247Z,5.62
2023-03-01T05:52:36.231Z,5.62
2023-03-01T05:53:36.229Z,5.62
2023-03-01T05:54:36.238Z,11.25
2023-03-01T05:55:36.219Z,11.25
2023-03-01T05:56:36.213Z,11.25
2023-03-01T05:57:36.185Z,11.25
2023-03-01T05:58:36.189Z,16.88
2023-03-01T05:59:36.172Z,16.88
2023-03-01T06:00:36.156Z,16.88
2023-03-01T06:01:36.167Z,22.50
2023-03-01T06:02:36.148Z,22.50
2023-03-01T06:03:36.151Z,22.50
2023-03-01T06:04:37.169Z,28.12
2023-03-01T06:05:36.155Z,28.12
2023-03-01T06:06:36.139Z,33.75
2023-03-01T06:07:36.111Z,33.75
2023-03-01T06:08:36.112Z,39.38
2023-03-01T06:09:36.089Z,39.38
2023-03-01T06:10:36.066Z,45.00
2023-03-01T06:11:36.071Z,50.62
2023-03-01T06:12:36.032Z,50.62
2023-03-01T06:13:36.037Z,56.25
2023-03-01T06:14:36.037Z,61.88
2023-03-01T06:15:36.102Z,61.88
2023-03-01T06:16:36.010Z,67.50
2023-03-01T06:17:36.007Z,73.12
2023-03-01T06:18:35.996Z,78.75
2023-03-01T06:19:35.994Z,84.38
2023-03-01T06:20:35.977Z,84.38
2023-03-01T06:21:35.998Z,90.00
2023-03-01T06:22:35.946Z,95.62
2023-03-01T06:23:35.955Z,101.25
2023-03-01T06:24:35.932Z,106.88
2023-03-01T06:25:35.937Z,106.88
2023-03-01T06:26:35.921Z,112.50
2023-03-01T06:27:35.898Z,118.12
2023-03-01T06:28:35.890Z,129.38
2023-03-01T06:29:35.880Z,146.25
2023-03-01T06:30:35.896Z,230.62
2023-03-01T06:31:35.945Z,331.88
2023-03-01T06:32:35.858Z,405.00
2023-03-01T06:33:35.838Z,523.12
2023-03-01T06:34:35.840Z,607.50
2023-03-01T06:35:35.865Z,646.88
2023-03-01T06:36:35.838Z,680.62
2023-03-01T06:37:35.811Z,731.25
2023-03-01T06:38:35.820Z,742.50
2023-03-01T06:39:35.795Z,798.75
2023-03-01T06:40:35.783Z,838.12
2023-03-01T06:41:35.785Z,849.38
2023-03-01T06:42:36.786Z,888.75
2023-03-01T06:43:35.744Z,911.25
2023-03-01T06:44:35.754Z,928.12
2023-03-01T06:45:35.763Z,956.25
2023-03-01T06:46:35.783Z,1001.25
2023-03-01T06:47:35.731Z,1063.12
2023-03-01T06:48:35.708Z,1096.88
2023-03-01T06:49:35.718Z,1108.12
2023-03-01T06:50:35.783Z,1119.38
2023-03-01T06:51:35.684Z,1164.38
2023-03-01T06:52:35.669Z,1170.00
2023-03-01T06:53:35.654Z,1186.88
2023-03-01T06:54:35.653Z,1198.12
2023-03-01T06:55:35.678Z,1203.75
2023-03-01T06:56:35.632Z,1276.88
2023-03-01T06:57:35.639Z,1288.12
2023-03-01T06:58:35.655Z,1310.62
2023-03-01T06:59:35.608Z,1361.25
2023-03-01T07:00:35.611Z,1361.25
2023-03-01T07:01:35.609Z,1400.62
2023-03-01T07:02:35.601Z,1440.00
2023-03-01T07:03:35.573Z,1456.88
2023-03-01T07:04:35.563Z,1473.75
2023-03-01T07:05:35.558Z,1496.25
2023-03-01T07:06:35.527Z,1530.00
2023-03-01T07:07:35.509Z,1541.25
2023-03-01T07:08:35.531Z,1603.12
2023-03-01T07:09:35.525Z,1580.62
2023-03-01T07:10:35.498Z,1569.38
2023-03-01T07:12:07.406Z,1586.25
2023-03-01T07:12:35.477Z,1620.00
2023-03-01T07:13:35.467Z,1704.38
2023-03-01T07:14:35.447Z,1676.25
2023-03-01T07:15:35.453Z,1710.00
2023-03-01T07:16:35.649Z,1794.38
2023-03-01T07:17:35.436Z,1828.12
2023-03-01T07:18:35.411Z,1839.38
2023-03-01T07:19:35.407Z,1833.75
2023-03-01T07:20:35.390Z,1811.25
2023-03-01T07:21:35.372Z,1833.75
2023-03-01T07:22:36.397Z,1822.50
2023-03-01T07:23:35.373Z,1794.38
2023-03-01T07:24:35.349Z,1783.12
2023-03-01T07:25:35.340Z,1800.00
2023-03-01T07:26:35.334Z,1777.50
2023-03-01T07:27:35.348Z,1845.00
2023-03-01T07:28:35.316Z,1800.00
2023-03-01T07:29:35.302Z,1783.12
2023-03-01T07:30:35.292Z,1783.12
2023-03-01T07:31:35.297Z,1794.38
2023-03-01T07:32:35.370Z,1766.25
2023-03-01T07:33:35.268Z,1749.38
2023-03-01T07:34:35.252Z,1766.25
2023-03-01T07:35:35.268Z,1783.12
2023-03-01T07:36:35.251Z,1732.50
2023-03-01T07:37:35.223Z,1721.25
2023-03-01T07:38:35.231Z,1569.38
2023-03-01T07:39:35.239Z,1248.75
2023-03-01T07:40:35.202Z,1046.25
2023-03-01T07:41:35.198Z,995.62
2023-03-01T07:42:35.181Z,973.12
2023-03-01T07:43:35.198Z,961.88
2023-03-01T07:44:35.182Z,961.88
2023-03-01T07:45:35.172Z,978.75
2023-03-01T07:46:35.146Z,990.00
2023-03-01T07:47:35.125Z,1006.88
2023-03-01T07:48:35.122Z,1035.00
2023-03-01T07:49:35.125Z,1051.88
2023-03-01T07:50:35.110Z,1068.75
2023-03-01T07:51:35.080Z,1068.75
2023-03-01T07:52:35.067Z,1063.12
2023-03-01T07:53:35.075Z,1063.12
2023-03-01T07:54:35.060Z,1063.12
2023-03-01T07:55:35.063Z,1074.38
2023-03-01T07:56:35.037Z,1091.25
2023-03-01T07:57:35.024Z,1108.12
2023-03-01T07:58:35.011Z,1130.62
2023-03-01T07:59:35.016Z,1164.38
2023-03-01T08:00:35.012Z,1209.38
2023-03-01T08:01:35.010Z,1293.75
2023-03-01T08:02:34.975Z,1417.50
2023-03-01T08:03:34.958Z,1563.75
2023-03-01T08:04:34.960Z,1890.00
2023-03-01T08:05:34.928Z,2334.38
2023-03-01T08:06:34.918Z,2379.38
2023-03-01T08:07:34.926Z,2233.12
2023-03-01T08:08:34.896Z,1912.50
2023-03-01T08:09:34.920Z,1704.38
2023-03-01T08:10:34.888Z,1732.50
2023-03-01T08:11:34.895Z,1726.88
2023-03-01T08:12:34.854Z,1552.50
2023-03-01T08:13:34.849Z,1507.50
2023-03-01T08:14:34.850Z,1569.38
2023-03-01T08:15:34.909Z,1507.50
2023-03-01T08:16:34.999Z,1496.25
2023-03-01T08:17:34.806Z,1434.38
2023-03-01T08:18:34.810Z,1428.75
2023-03-01T08:19:34.816Z,1586.25
2023-03-01T08:20:34.858Z,1541.25
2023-03-01T08:21:34.769Z,1434.38
2023-03-01T08:22:34.769Z,1372.50
2023-03-01T08:23:34.754Z,1361.25
2023-03-01T08:24:34.737Z,1423.12
2023-03-01T08:25:34.729Z,1462.50
2023-03-01T08:26:34.734Z,1395.00
2023-03-01T08:27:34.728Z,1389.38
2023-03-01T08:28:34.705Z,1400.62
2023-03-01T08:29:34.698Z,1406.25
2023-03-01T08:30:34.700Z,1378.12
2023-03-01T08:31:34.713Z,1389.38
2023-03-01T08:32:34.693Z,1423.12
2023-03-01T08:33:34.659Z,1473.75
2023-03-01T08:34:35.654Z,1428.75
2023-03-01T08:35:34.687Z,1361.25
2023-03-01T08:36:34.856Z,1406.25
2023-03-01T08:37:35.620Z,1468.12
2023-03-01T08:38:34.643Z,1451.25
2023-03-01T08:39:34.602Z,1485.00
2023-03-01T08:40:34.599Z,1507.50
2023-03-01T08:41:34.576Z,1501.88
2023-03-01T08:42:34.562Z,1507.50
2023-03-01T08:43:34.578Z,1591.88
2023-03-01T08:44:34.565Z,1665.00
2023-03-01T08:45:34.573Z,1726.88
2023-03-01T08:46:34.774Z,1670.62
2023-03-01T08:47:34.589Z,1670.62
2023-03-01T08:48:34.551Z,1828.12
2023-03-01T08:49:34.533Z,1906.88
2023-03-01T08:50:34.498Z,1828.12
2023-03-01T08:51:34.501Z,1822.50
2023-03-01T08:52:34.521Z,1901.25
2023-03-01T08:53:35.462Z,1912.50
2023-03-01T08:54:34.454Z,2002.50
2023-03-01T08:55:34.439Z,2109.38
2023-03-01T08:56:34.433Z,2176.88
2023-03-01T08:57:34.417Z,2306.25
2023-03-01T08:58:34.458Z,2311.88
2023-03-01T08:59:34.404Z,2289.38
2023-03-01T09:00:34.378Z,2109.38
2023-03-01T09:01:34.372Z,1839.38
2023-03-01T09:02:34.423Z,1681.88
2023-03-01T09:03:34.397Z,1563.75
2023-03-01T09:04:34.376Z,1485.00
2023-03-01T09:05:34.330Z,1378.12
2023-03-01T09:06:34.325Z,1299.38
2023-03-01T09:07:34.316Z,1254.38
2023-03-01T09:08:34.299Z,1271.25
2023-03-01T09:09:34.337Z,1299.38
2023-03-01T09:10:34.283Z,1293.75
2023-03-01T09:11:34.325Z,1192.50
2023-03-01T09:12:34.272Z,1046.25
2023-03-01T09:13:34.272Z,950.62
2023-03-01T09:14:34.265Z,911.25
2023-03-01T09:15:34.236Z,905.62
2023-03-01T09:16:34.436Z,877.50
2023-03-01T09:17:34.220Z,855.00
2023-03-01T09:18:34.218Z,866.25
2023-03-01T09:19:34.249Z,855.00
2023-03-01T09:20:34.181Z,855.00
2023-03-01T09:21:40.699Z,843.75
2023-03-01T09:22:36.212Z,838.12
2023-03-01T09:23:34.170Z,838.12
2023-03-01T09:24:34.187Z,826.88
2023-03-01T09:25:34.142Z,832.50
2023-03-01T09:26:34.363Z,821.25
2023-03-01T09:27:34.141Z,815.62
2023-03-01T09:28:34.112Z,826.88
2023-03-01T09:29:34.100Z,810.00
2023-03-01T09:30:34.179Z,810.00
2023-03-01T09:31:34.084Z,804.38
2023-03-01T09:32:34.114Z,804.38
2023-03-01T09:33:34.057Z,787.50
2023-03-01T09:34:34.068Z,781.88
2023-03-01T09:35:34.089Z,781.88
2023-03-01T09:36:34.213Z,770.62
2023-03-01T09:37:34.060Z,770.62
2023-03-01T09:38:34.040Z,770.62
2023-03-01T09:39:34.007Z,776.25
2023-03-01T09:40:34.004Z,765.00
2023-03-01T09:41:33.981Z,770.62
2023-03-01T09:42:33.992Z,759.38
2023-03-01T09:43:33.966Z,765.00
2023-03-01T09:44:33.991Z,753.75
2023-03-01T09:45:33.956Z,759.38
2023-03-01T09:46:34.417Z,759.38
2023-03-01T09:47:33.931Z,742.50
2023-03-01T09:48:33.977Z,742.50
2023-03-01T09:49:33.908Z,748.12
2023-03-01T09:50:33.900Z,748.12
2023-03-01T09:51:34.014Z,748.12
2023-03-01T09:52:33.875Z,742.50
2023-03-01T09:53:33.850Z,736.88
2023-03-01T09:54:33.852Z,731.25
2023-03-01T09:55:33.894Z,720.00
2023-03-01T09:56:33.840Z,714.38
2023-03-01T09:57:33.815Z,708.75
2023-03-01T09:58:33.820Z,686.25
2023-03-01T09:59:33.802Z,675.00
2023-03-01T10:00:33.806Z,675.00
2023-03-01T10:01:33.791Z,658.12
2023-03-01T10:02:33.779Z,652.50
2023-03-01T10:03:33.783Z,658.12
2023-03-01T10:04:35.408Z,663.75
2023-03-01T10:05:33.770Z,663.75
2023-03-01T10:06:35.508Z,652.50
2023-03-01T10:07:34.733Z,646.88
2023-03-01T10:08:33.708Z,646.88
2023-03-01T10:09:33.704Z,652.50
2023-03-01T10:10:33.700Z,646.88
2023-03-01T10:11:33.704Z,646.88
2023-03-01T10:12:33.675Z,641.25
2023-03-01T10:13:33.671Z,630.00
2023-03-01T10:14:33.674Z,635.62
2023-03-01T10:15:33.668Z,624.38
2023-03-01T10:16:33.633Z,630.00
2023-03-01T10:17:33.627Z,624.38
2023-03-01T10:18:33.683Z,624.38
2023-03-01T10:19:33.621Z,618.75
2023-03-01T10:20:33.600Z,624.38
2023-03-01T10:21:33.923Z,613.12
2023-03-01T10:22:33.598Z,607.50
2023-03-01T10:23:33.565Z,613.12
2023-03-01T10:24:33.553Z,607.50
2023-03-01T10:25:33.559Z,607.50
2023-03-01T10:26:33.849Z,607.50
2023-03-01T10:27:33.557Z,601.88
2023-03-01T10:28:33.518Z,601.88
2023-03-01T10:29:33.512Z,596.25
2023-03-01T10:30:33.529Z,590.62
2023-03-01T10:31:33.897Z,590.62
2023-03-01T10:32:33.521Z,585.00
2023-03-01T10:33:33.475Z,585.00
2023-03-01T10:34:33.477Z,573.75
2023-03-01T10:35:33.490Z,579.38
2023-03-01T10:36:33.636Z,573.75
2023-03-01T10:37:33.432Z,568.12
2023-03-01T10:38:33.429Z,568.12
2023-03-01T10:39:35.037Z,568.12
2023-03-01T10:40:33.419Z,562.50
2023-03-01T10:41:33.711Z,562.50
2023-03-01T10:42:33.409Z,556.88
2023-03-01T10:43:33.373Z,551.25
2023-03-01T10:44:33.357Z,551.25
2023-03-01T10:45:33.350Z,551.25
2023-03-01T10:46:33.384Z,545.62
2023-03-01T10:47:33.347Z,545.62
2023-03-01T10:48:33.338Z,540.00
2023-03-01T10:49:33.310Z,534.38
2023-03-01T10:50:33.309Z,528.75
2023-03-01T10:51:33.425Z,528.75
2023-03-01T10:52:33.304Z,528.75
2023-03-01T10:53:33.308Z,528.75
2023-03-01T10:54:33.287Z,517.50
2023-03-01T10:55:33.264Z,517.50
2023-03-01T10:56:33.256Z,511.88
2023-03-01T10:57:33.242Z,511.88
2023-03-01T10:58:33.243Z,506.25
2023-03-01T10:59:33.230Z,506.25
2023-03-01T11:00:33.230Z,500.62
2023-03-01T11:01:34.049Z,500.62
2023-03-01T11:02:33.279Z,500.62
2023-03-01T11:03:33.198Z,495.00
2023-03-01T11:04:33.224Z,495.00
2023-03-01T11:05:33.169Z,489.38
2023-03-01T11:06:33.154Z,489.38
2023-03-01T11:07:33.175Z,489.38
2023-03-01T11:08:34.866Z,489.38
2023-03-01T11:09:33.116Z,483.75
2023-03-01T11:10:33.136Z,483.75
2023-03-01T11:11:33.405Z,478.12
2023-03-01T11:12:33.090Z,478.12
2023-03-01T11:13:33.074Z,478.12
2023-03-01T11:14:33.085Z,478.12
2023-03-01T11:15:33.050Z,472.50
2023-03-01T11:16:33.105Z,478.12
2023-03-01T11:17:39.049Z,472.50
2023-03-01T11:18:47.066Z,466.88
2023-03-01T11:19:35.026Z,466.88
2023-03-01T11:20:33.047Z,461.25
2023-03-01T11:21:33.300Z,461.25
2023-03-01T11:22:33.009Z,455.62
2023-03-01T11:23:32.981Z,455.62
2023-03-01T11:24:32.977Z,455.62
2023-03-01T11:25:32.973Z,450.00
2023-03-01T11:26:33.167Z,450.00
2023-03-01T11:27:32.972Z,450.00
2023-03-01T11:28:32.932Z,444.38
2023-03-01T11:29:43.249Z,444.38
2023-03-01T11:30:34.911Z,444.38
2023-03-01T11:31:34.275Z,438.75
2023-03-01T11:32:32.973Z,438.75
2023-03-01T11:33:32.905Z,438.75
2023-03-01T11:34:32.908Z,438.75
2023-03-01T11:35:32.856Z,438.75
2023-03-01T11:36:32.862Z,433.12
2023-03-01T11:37:32.845Z,433.12
2023-03-01T11:38:32.867Z,433.12
2023-03-01T11:39:32.814Z,433.12
2023-03-01T11:40:32.810Z,433.12
2023-03-01T11:41:33.220Z,433.12
2023-03-01T11:42:32.825Z,433.12
2023-03-01T11:43:32.776Z,427.50
2023-03-01T11:44:32.841Z,427.50
2023-03-01T11:45:32.782Z,427.50
2023-03-01T11:46:32.959Z,427.50
2023-03-01T11:47:32.850Z,427.50
2023-03-01T11:48:48.515Z,421.88
2023-03-01T11:49:34.741Z,421.88
2023-03-01T11:50:32.718Z,421.88
2023-03-01T11:51:33.011Z,421.88
2023-03-01T11:52:32.688Z,421.88
2023-03-01T11:53:32.676Z,416.25
2023-03-01T11:54:32.697Z,416.25
2023-03-01T11:55:32.671Z,416.25
2023-03-01T11:56:32.669Z,416.25
2023-03-01T11:57:42.703Z,416.25
2023-03-01T11:58:34.632Z,416.25
2023-03-01T11:59:32.636Z,416.25
2023-03-01T12:00:32.638Z,416.25
2023-03-01T12:01:33.048Z,416.25
2023-03-01T12:02:32.634Z,416.25
2023-03-01T12:03:32.597Z,416.25
2023-03-01T12:04:32.593Z,416.25
2023-03-01T12:05:32.577Z,416.25
2023-03-01T12:06:32.568Z,416.25
2023-03-01T12:07:32.551Z,416.25
2023-03-01T12:08:32.546Z,416.25
2023-03-01T12:09:32.596Z,416.25
2023-03-01T12:10:32.501Z,410.62
2023-03-01T12:11:32.498Z,410.62
2023-03-01T12:12:32.497Z,410.62
2023-03-01T12:13:32.495Z,405.00
2023-03-01T12:14:32.492Z,405.00
2023-03-01T12:15:32.478Z,405.00
2023-03-01T12:16:38.842Z,405.00
2023-03-01T12:17:33.450Z,410.62
2023-03-01T12:18:32.428Z,405.00
2023-03-01T12:19:32.435Z,405.00
2023-03-01T12:20:32.452Z,405.00
2023-03-01T12:21:32.666Z,405.00
2023-03-01T12:22:32.415Z,405.00
2023-03-01T12:23:32.388Z,405.00
2023-03-01T12:24:32.387Z,405.00
2023-03-01T12:25:32.384Z,405.00
2023-03-01T12:26:32.366Z,405.00
2023-03-01T12:27:32.350Z,405.00
2023-03-01T12:28:32.378Z,405.00
2023-03-01T12:29:32.327Z,405.00
2023-03-01T12:30:32.350Z,405.00
2023-03-01T12:31:32.708Z,405.00
2023-03-01T12:32:34.054Z,405.00
2023-03-01T12:33:33.306Z,405.00
2023-03-01T12:34:32.276Z,405.00
2023-03-01T12:35:32.273Z,405.00
2023-03-01T12:36:33.651Z,405.00
2023-03-01T12:37:32.285Z,399.38
2023-03-01T12:38:32.259Z,399.38
2023-03-01T12:39:32.227Z,399.38
2023-03-01T12:40:32.218Z,399.38
2023-03-01T12:41:32.515Z,399.38
2023-03-01T12:42:32.207Z,399.38
2023-03-01T12:43:32.246Z,399.38
2023-03-01T12:44:32.191Z,399.38
2023-03-01T12:45:32.217Z,399.38
2023-03-01T12:46:32.522Z,399.38
2023-03-01T12:47:32.171Z,399.38